sensor_id;sensor_type;location;lat;lon;timestamp;pressure;altitude;pressure_sealevel;temperature;humidity
11710;BME280;5911;51.036;6.972;2023-05-16T00:01:34;100766.81;;;15.37;100.00
11710;BME280;5911;51.036;6.972;2023-05-16T00:04:04;100767.88;;;15.44;100.00
11710;BME280;5911;51.036;6.972;2023-05-16T00:06:33;100773.53;;;15.41;100.00
11710;BME280;5911;51.036;6.972;2023-05-16T00:09:01;100769.09;;;15.32;100.00
11710;BME280;5911;51.036;6.972;2023-05-16T00:11:29;100774.50;;;15.23;100.00
11710;BME280;5911;51.036;6.972;2023-05-16T00:13:57;100768.25;;;15.14;100.00
11710;BME280;5911;51.036;6.972;2023-05-16T00:16:26;100762.63;;;15.17;100.00
11710;BME280;5911;51.036;6.972;2023-05-16T00:18:55;100765.91;;;15.11;100.00
11710;BME280;5911;51.036;6.972;2023-05-16T00:21:26;100761.78;;;14.99;100.00
11710;BME280;5911;51.036;6.972;2023-05-16T00:23:54;100774.22;;;14.98;100.00
11710;BME280;5911;51.036;6.972;2023-05-16T00:26:22;100764.97;;;15.02;100.00
11710;BME280;5911;51.036;6.972;2023-05-16T00:28:50;100765.81;;;15.03;100.00
11710;BME280;5911;51.036;6.972;2023-05-16T00:31:18;100770.53;;;15.09;100.00
11710;BME280;5911;51.036;6.972;2023-05-16T00:33:46;100769.09;;;14.97;100.00
11710;BME280;5911;51.036;6.972;2023-05-16T00:36:13;100760.28;;;14.96;100.00
11710;BME280;5911;51.036;6.972;2023-05-16T00:38:42;100773.50;;;15.06;100.00
11710;BME280;5911;51.036;6.972;2023-05-16T00:41:10;100769.09;;;14.97;100.00
11710;BME280;5911;51.036;6.972;2023-05-16T00:43:38;100773.19;;;15.09;100.00
11710;BME280;5911;51.036;6.972;2023-05-16T00:46:06;100772.56;;;15.15;100.00
11710;BME280;5911;51.036;6.972;2023-05-16T00:48:34;100766.50;;;15.05;100.00
11710;BME280;5911;51.036;6.972;2023-05-16T00:51:02;100772.66;;;15.05;100.00
11710;BME280;5911;51.036;6.972;2023-05-16T00:53:34;100743.13;;;14.91;100.00
11710;BME280;5911;51.036;6.972;2023-05-16T00:56:04;100763.09;;;15.12;100.00
11710;BME280;5911;51.036;6.972;2023-05-16T00:58:33;100772.28;;;15.18;100.00
11710;BME280;5911;51.036;6.972;2023-05-16T01:01:00;100772.06;;;15.11;100.00
11710;BME280;5911;51.036;6.972;2023-05-16T01:03:29;100767.25;;;15.15;100.00
11710;BME280;5911;51.036;6.972;2023-05-16T01:05:58;100784.19;;;15.14;100.00
11710;BME280;5911;51.036;6.972;2023-05-16T01:08:26;100782.44;;;15.05;100.00
11710;BME280;5911;51.036;6.972;2023-05-16T01:11:00;100777.69;;;15.08;100.00
11710;BME280;5911;51.036;6.972;2023-05-16T01:13:39;100790.97;;;15.08;100.00
11710;BME280;5911;51.036;6.972;2023-05-16T01:16:12;100787.19;;;15.11;100.00
11710;BME280;5911;51.036;6.972;2023-05-16T01:18:50;100791.00;;;14.99;100.00
11710;BME280;5911;51.036;6.972;2023-05-16T01:21:38;100777.25;;;14.86;100.00
11710;BME280;5911;51.036;6.972;2023-05-16T01:24:13;100795.72;;;15.05;100.00
11710;BME280;5911;51.036;6.972;2023-05-16T01:26:43;100802.03;;;15.04;100.00
11710;BME280;5911;51.036;6.972;2023-05-16T01:29:13;100798.50;;;14.86;100.00
11710;BME280;5911;51.036;6.972;2023-05-16T01:31:42;100796.09;;;14.92;100.00
11710;BME280;5911;51.036;6.972;2023-05-16T01:34:11;100798.59;;;14.94;100.00
11710;BME280;5911;51.036;6.972;2023-05-16T01:36:44;100798.06;;;14.90;100.00
11710;BME280;5911;51.036;6.972;2023-05-16T01:39:19;100803.63;;;14.97;100.00
11710;BME280;5911;51.036;6.972;2023-05-16T01:41:54;100806.88;;;14.91;100.00
11710;BME280;5911;51.036;6.972;2023-05-16T01:44:30;100812.47;;;14.88;100.00
11710;BME280;5911;51.036;6.972;2023-05-16T01:47:01;100807.38;;;14.76;100.00
11710;BME280;5911;51.036;6.972;2023-05-16T01:49:34;100814.06;;;14.81;100.00
11710;BME280;5911;51.036;6.972;2023-05-16T01:52:06;100821.72;;;14.84;100.00
11710;BME280;5911;51.036;6.972;2023-05-16T01:54:37;100834.63;;;14.69;100.00
11710;BME280;5911;51.036;6.972;2023-05-16T01:57:07;100836.16;;;14.71;100.00
11710;BME280;5911;51.036;6.972;2023-05-16T01:59:37;100839.25;;;14.67;100.00
11710;BME280;5911;51.036;6.972;2023-05-16T02:02:05;100839.59;;;14.54;100.00
11710;BME280;5911;51.036;6.972;2023-05-16T02:04:33;100843.13;;;14.45;100.00
11710;BME280;5911;51.036;6.972;2023-05-16T02:07:01;100835.72;;;14.49;100.00
11710;BME280;5911;51.036;6.972;2023-05-16T02:09:28;100833.28;;;14.55;100.00
11710;BME280;5911;51.036;6.972;2023-05-16T02:11:56;100839.72;;;14.53;100.00
11710;BME280;5911;51.036;6.972;2023-05-16T02:14:27;100843.06;;;14.55;100.00
11710;BME280;5911;51.036;6.972;2023-05-16T02:16:55;100846.72;;;14.54;100.00
11710;BME280;5911;51.036;6.972;2023-05-16T02:19:22;100852.59;;;14.38;100.00
11710;BME280;5911;51.036;6.972;2023-05-16T02:21:50;100854.88;;;14.33;100.00
11710;BME280;5911;51.036;6.972;2023-05-16T02:24:18;100861.00;;;14.33;100.00
11710;BME280;5911;51.036;6.972;2023-05-16T02:26:46;100868.28;;;14.31;100.00
11710;BME280;5911;51.036;6.972;2023-05-16T02:29:14;100858.78;;;14.29;100.00
11710;BME280;5911;51.036;6.972;2023-05-16T02:31:43;100871.06;;;14.30;100.00
11710;BME280;5911;51.036;6.972;2023-05-16T02:34:11;100875.25;;;14.23;100.00
11710;BME280;5911;51.036;6.972;2023-05-16T02:36:41;100876.22;;;14.22;100.00
11710;BME280;5911;51.036;6.972;2023-05-16T02:39:08;100884.38;;;14.20;100.00
11710;BME280;5911;51.036;6.972;2023-05-16T02:41:36;100888.97;;;14.08;100.00
11710;BME280;5911;51.036;6.972;2023-05-16T02:44:04;100890.09;;;14.16;100.00
11710;BME280;5911;51.036;6.972;2023-05-16T02:46:33;100895.50;;;14.24;100.00
11710;BME280;5911;51.036;6.972;2023-05-16T02:49:04;100898.59;;;14.19;100.00
11710;BME280;5911;51.036;6.972;2023-05-16T02:51:31;100903.50;;;14.14;100.00
11710;BME280;5911;51.036;6.972;2023-05-16T02:53:59;100899.84;;;14.05;100.00
11710;BME280;5911;51.036;6.972;2023-05-16T02:56:27;100908.22;;;14.11;100.00
11710;BME280;5911;51.036;6.972;2023-05-16T02:58:55;100906.16;;;14.04;100.00
11710;BME280;5911;51.036;6.972;2023-05-16T03:01:23;100898.63;;;14.00;100.00
11710;BME280;5911;51.036;6.972;2023-05-16T03:03:51;100908.94;;;14.13;100.00
11710;BME280;5911;51.036;6.972;2023-05-16T03:06:20;100912.69;;;14.10;100.00
11710;BME280;5911;51.036;6.972;2023-05-16T03:08:48;100918.72;;;14.12;100.00
11710;BME280;5911;51.036;6.972;2023-05-16T03:11:16;100921.66;;;14.19;100.00
11710;BME280;5911;51.036;6.972;2023-05-16T03:13:46;100883.09;;;13.95;100.00
11710;BME280;5911;51.036;6.972;2023-05-16T03:16:14;100915.06;;;14.13;100.00
11710;BME280;5911;51.036;6.972;2023-05-16T03:18:42;100922.47;;;14.19;100.00
11710;BME280;5911;51.036;6.972;2023-05-16T03:21:10;100928.63;;;14.20;100.00
11710;BME280;5911;51.036;6.972;2023-05-16T03:23:39;100922.75;;;14.16;100.00
11710;BME280;5911;51.036;6.972;2023-05-16T03:26:07;100925.81;;;14.12;100.00
11710;BME280;5911;51.036;6.972;2023-05-16T03:28:35;100921.34;;;14.12;100.00
11710;BME280;5911;51.036;6.972;2023-05-16T03:31:04;100921.78;;;14.07;100.00
11710;BME280;5911;51.036;6.972;2023-05-16T03:33:31;100931.41;;;14.08;100.00
11710;BME280;5911;51.036;6.972;2023-05-16T03:36:00;100931.13;;;14.12;100.00
11710;BME280;5911;51.036;6.972;2023-05-16T03:38:28;100926.81;;;14.01;100.00
11710;BME280;5911;51.036;6.972;2023-05-16T03:40:57;100936.72;;;14.08;100.00
11710;BME280;5911;51.036;6.972;2023-05-16T03:43:25;100941.47;;;14.05;100.00
11710;BME280;5911;51.036;6.972;2023-05-16T03:45:53;100929.75;;;13.88;100.00
11710;BME280;5911;51.036;6.972;2023-05-16T03:48:21;100933.22;;;13.98;100.00
11710;BME280;5911;51.036;6.972;2023-05-16T03:50:49;100952.06;;;13.86;100.00
11710;BME280;5911;51.036;6.972;2023-05-16T03:53:17;100949.69;;;13.83;100.00
11710;BME280;5911;51.036;6.972;2023-05-16T03:55:45;100960.28;;;13.92;100.00
11710;BME280;5911;51.036;6.972;2023-05-16T03:58:15;100952.22;;;13.84;100.00
11710;BME280;5911;51.036;6.972;2023-05-16T04:00:43;100964.31;;;13.77;100.00
11710;BME280;5911;51.036;6.972;2023-05-16T04:03:12;100957.34;;;13.76;100.00
11710;BME280;5911;51.036;6.972;2023-05-16T04:05:40;100967.81;;;13.78;100.00
11710;BME280;5911;51.036;6.972;2023-05-16T04:08:08;100930.38;;;13.52;100.00
11710;BME280;5911;51.036;6.972;2023-05-16T04:10:36;100972.97;;;13.79;100.00
11710;BME280;5911;51.036;6.972;2023-05-16T04:13:04;100981.66;;;13.81;100.00
11710;BME280;5911;51.036;6.972;2023-05-16T04:15:33;100976.78;;;13.86;100.00
11710;BME280;5911;51.036;6.972;2023-05-16T04:18:01;100954.38;;;13.60;100.00
11710;BME280;5911;51.036;6.972;2023-05-16T04:20:30;100990.84;;;13.77;100.00
11710;BME280;5911;51.036;6.972;2023-05-16T04:22:58;100975.75;;;13.68;100.00
11710;BME280;5911;51.036;6.972;2023-05-16T04:25:26;100990.00;;;13.77;100.00
11710;BME280;5911;51.036;6.972;2023-05-16T04:27:54;100986.25;;;13.79;100.00
11710;BME280;5911;51.036;6.972;2023-05-16T04:30:22;100992.09;;;13.73;100.00
11710;BME280;5911;51.036;6.972;2023-05-16T04:32:51;100999.50;;;13.79;100.00
11710;BME280;5911;51.036;6.972;2023-05-16T04:35:19;101012.03;;;13.58;100.00
11710;BME280;5911;51.036;6.972;2023-05-16T04:37:48;101010.50;;;13.65;100.00
11710;BME280;5911;51.036;6.972;2023-05-16T04:40:16;101020.66;;;13.60;100.00
11710;BME280;5911;51.036;6.972;2023-05-16T04:42:44;101008.94;;;13.53;100.00
11710;BME280;5911;51.036;6.972;2023-05-16T04:45:12;101027.22;;;13.56;100.00
11710;BME280;5911;51.036;6.972;2023-05-16T04:47:40;101022.19;;;13.53;100.00
11710;BME280;5911;51.036;6.972;2023-05-16T04:50:09;101032.91;;;13.51;100.00
11710;BME280;5911;51.036;6.972;2023-05-16T04:52:37;101030.56;;;13.58;100.00
11710;BME280;5911;51.036;6.972;2023-05-16T04:55:06;101034.47;;;13.54;100.00
11710;BME280;5911;51.036;6.972;2023-05-16T04:57:34;101038.72;;;13.45;100.00
11710;BME280;5911;51.036;6.972;2023-05-16T05:00:02;101038.72;;;13.45;100.00
11710;BME280;5911;51.036;6.972;2023-05-16T05:02:34;101032.88;;;13.42;100.00
11710;BME280;5911;51.036;6.972;2023-05-16T05:05:02;101048.22;;;13.48;100.00
11710;BME280;5911;51.036;6.972;2023-05-16T05:07:31;101055.09;;;13.50;100.00
11710;BME280;5911;51.036;6.972;2023-05-16T05:09:59;101055.47;;;13.46;100.00
11710;BME280;5911;51.036;6.972;2023-05-16T05:12:27;101062.59;;;13.45;100.00
11710;BME280;5911;51.036;6.972;2023-05-16T05:14:55;101068.59;;;13.47;100.00
11710;BME280;5911;51.036;6.972;2023-05-16T05:17:23;101077.22;;;13.40;100.00
11710;BME280;5911;51.036;6.972;2023-05-16T05:19:51;101077.38;;;13.48;100.00
11710;BME280;5911;51.036;6.972;2023-05-16T05:22:18;101075.84;;;13.45;100.00
11710;BME280;5911;51.036;6.972;2023-05-16T05:24:48;101077.00;;;13.52;100.00
11710;BME280;5911;51.036;6.972;2023-05-16T05:27:15;101077.00;;;13.52;100.00
11710;BME280;5911;51.036;6.972;2023-05-16T05:29:43;101081.97;;;13.46;100.00
11710;BME280;5911;51.036;6.972;2023-05-16T05:32:11;101081.97;;;13.46;100.00
11710;BME280;5911;51.036;6.972;2023-05-16T05:34:39;101086.72;;;13.42;100.00
11710;BME280;5911;51.036;6.972;2023-05-16T05:37:07;101089.63;;;13.39;100.00
11710;BME280;5911;51.036;6.972;2023-05-16T05:39:35;101089.88;;;13.36;100.00
11710;BME280;5911;51.036;6.972;2023-05-16T05:42:05;101090.63;;;13.48;100.00
11710;BME280;5911;51.036;6.972;2023-05-16T05:44:32;101102.22;;;13.47;100.00
11710;BME280;5911;51.036;6.972;2023-05-16T05:47:00;101103.88;;;13.48;100.00
11710;BME280;5911;51.036;6.972;2023-05-16T05:49:28;101100.97;;;13.51;100.00
11710;BME280;5911;51.036;6.972;2023-05-16T05:51:56;101105.91;;;13.55;100.00
11710;BME280;5911;51.036;6.972;2023-05-16T05:54:24;101113.13;;;13.53;100.00
11710;BME280;5911;51.036;6.972;2023-05-16T05:56:52;101110.66;;;13.61;100.00
11710;BME280;5911;51.036;6.972;2023-05-16T05:59:21;101114.81;;;13.54;100.00
11710;BME280;5911;51.036;6.972;2023-05-16T06:01:49;101115.81;;;13.63;100.00
11710;BME280;5911;51.036;6.972;2023-05-16T06:04:18;101116.41;;;13.66;100.00
11710;BME280;5911;51.036;6.972;2023-05-16T06:06:46;101115.81;;;13.63;100.00
11710;BME280;5911;51.036;6.972;2023-05-16T06:09:14;101126.56;;;13.61;100.00
11710;BME280;5911;51.036;6.972;2023-05-16T06:11:42;101120.69;;;13.58;100.00
11710;BME280;5911;51.036;6.972;2023-05-16T06:14:12;101131.84;;;13.61;100.00
11710;BME280;5911;51.036;6.972;2023-05-16T06:16:42;101134.84;;;13.68;100.00
11710;BME280;5911;51.036;6.972;2023-05-16T06:19:10;101131.97;;;13.60;100.00
11710;BME280;5911;51.036;6.972;2023-05-16T06:21:41;101139.81;;;13.61;100.00
11710;BME280;5911;51.036;6.972;2023-05-16T06:24:09;101135.34;;;13.62;100.00
11710;BME280;5911;51.036;6.972;2023-05-16T06:26:37;101141.63;;;13.61;100.00
11710;BME280;5911;51.036;6.972;2023-05-16T06:29:05;101140.97;;;13.68;100.00
11710;BME280;5911;51.036;6.972;2023-05-16T06:31:33;101145.09;;;13.61;100.00
11710;BME280;5911;51.036;6.972;2023-05-16T06:34:02;101150.75;;;13.68;100.00
11710;BME280;5911;51.036;6.972;2023-05-16T06:36:30;101152.59;;;13.77;100.00
11710;BME280;5911;51.036;6.972;2023-05-16T06:38:58;101142.28;;;13.84;100.00
11710;BME280;5911;51.036;6.972;2023-05-16T06:41:26;101157.25;;;13.85;100.00
11710;BME280;5911;51.036;6.972;2023-05-16T06:43:54;101153.28;;;13.79;99.75
11710;BME280;5911;51.036;6.972;2023-05-16T06:46:22;101149.41;;;13.83;99.76
11710;BME280;5911;51.036;6.972;2023-05-16T06:48:49;101149.16;;;13.86;100.00
11710;BME280;5911;51.036;6.972;2023-05-16T06:51:19;101145.25;;;13.90;99.12
11710;BME280;5911;51.036;6.972;2023-05-16T06:53:46;101156.13;;;13.87;98.25
11710;BME280;5911;51.036;6.972;2023-05-16T06:56:14;101149.19;;;13.96;98.07
11710;BME280;5911;51.036;6.972;2023-05-16T06:58:42;101157.00;;;13.97;95.73
11710;BME280;5911;51.036;6.972;2023-05-16T07:01:10;101124.44;;;13.86;95.70
11710;BME280;5911;51.036;6.972;2023-05-16T07:03:38;101160.38;;;13.99;95.07
11710;BME280;5911;51.036;6.972;2023-05-16T07:06:06;101154.75;;;13.93;94.79
11710;BME280;5911;51.036;6.972;2023-05-16T07:08:35;101162.84;;;13.91;94.70
11710;BME280;5911;51.036;6.972;2023-05-16T07:11:03;101171.22;;;13.87;96.17
11710;BME280;5911;51.036;6.972;2023-05-16T07:13:31;101165.84;;;13.77;96.95
11710;BME280;5911;51.036;6.972;2023-05-16T07:16:01;101170.44;;;13.75;97.57
11710;BME280;5911;51.036;6.972;2023-05-16T07:18:29;101162.31;;;13.67;96.04
11710;BME280;5911;51.036;6.972;2023-05-16T07:20:57;101176.16;;;13.70;94.67
11710;BME280;5911;51.036;6.972;2023-05-16T07:23:25;101164.16;;;13.76;96.43
11710;BME280;5911;51.036;6.972;2023-05-16T07:25:54;101174.69;;;13.87;97.37
11710;BME280;5911;51.036;6.972;2023-05-16T07:28:22;101168.97;;;13.92;95.29
11710;BME280;5911;51.036;6.972;2023-05-16T07:30:50;101182.09;;;13.93;90.09
11710;BME280;5911;51.036;6.972;2023-05-16T07:33:18;101181.84;;;13.96;88.69
11710;BME280;5911;51.036;6.972;2023-05-16T07:35:46;101176.03;;;14.02;89.80
11710;BME280;5911;51.036;6.972;2023-05-16T07:38:14;101185.25;;;14.08;87.50
11710;BME280;5911;51.036;6.972;2023-05-16T07:40:41;101185.81;;;14.12;85.31
11710;BME280;5911;51.036;6.972;2023-05-16T07:43:11;101192.97;;;14.21;82.48
11710;BME280;5911;51.036;6.972;2023-05-16T07:45:39;101183.91;;;14.23;86.03
11710;BME280;5911;51.036;6.972;2023-05-16T07:48:07;101179.31;;;14.25;86.11
11710;BME280;5911;51.036;6.972;2023-05-16T07:50:35;101185.31;;;14.27;86.09
11710;BME280;5911;51.036;6.972;2023-05-16T07:53:03;101186.41;;;14.25;83.37
11710;BME280;5911;51.036;6.972;2023-05-16T07:55:31;101180.84;;;14.28;86.25
11710;BME280;5911;51.036;6.972;2023-05-16T07:57:59;101178.47;;;14.25;87.85
11710;BME280;5911;51.036;6.972;2023-05-16T08:00:28;101180.59;;;14.31;87.80
11710;BME280;5911;51.036;6.972;2023-05-16T08:02:56;101180.59;;;14.31;86.73
11710;BME280;5911;51.036;6.972;2023-05-16T08:05:24;101187.56;;;14.32;87.64
11710;BME280;5911;51.036;6.972;2023-05-16T08:07:52;101197.88;;;14.25;86.03
11710;BME280;5911;51.036;6.972;2023-05-16T08:10:20;101186.00;;;14.20;83.60
11710;BME280;5911;51.036;6.972;2023-05-16T08:12:48;101186.16;;;14.28;80.26
11710;BME280;5911;51.036;6.972;2023-05-16T08:15:16;101177.34;;;14.18;80.91
11710;BME280;5911;51.036;6.972;2023-05-16T08:17:48;101192.19;;;14.39;79.94
11710;BME280;5911;51.036;6.972;2023-05-16T08:20:17;101188.59;;;14.40;77.89
11710;BME280;5911;51.036;6.972;2023-05-16T08:22:44;101175.28;;;14.31;73.15
11710;BME280;5911;51.036;6.972;2023-05-16T08:25:12;101191.56;;;14.47;71.83
11710;BME280;5911;51.036;6.972;2023-05-16T08:27:40;101166.38;;;14.41;74.37
11710;BME280;5911;51.036;6.972;2023-05-16T08:30:09;101184.44;;;14.57;72.46
11710;BME280;5911;51.036;6.972;2023-05-16T08:32:37;101196.34;;;14.72;76.16
11710;BME280;5911;51.036;6.972;2023-05-16T08:35:07;101193.16;;;14.78;72.14
11710;BME280;5911;51.036;6.972;2023-05-16T08:37:36;101192.19;;;14.80;69.63
11710;BME280;5911;51.036;6.972;2023-05-16T08:40:06;101187.00;;;14.88;70.02
11710;BME280;5911;51.036;6.972;2023-05-16T08:42:36;101189.13;;;14.94;70.59
11710;BME280;5911;51.036;6.972;2023-05-16T08:45:06;101191.63;;;14.95;73.34
11710;BME280;5911;51.036;6.972;2023-05-16T08:47:35;101200.28;;;14.88;73.23
11710;BME280;5911;51.036;6.972;2023-05-16T08:50:09;101196.09;;;14.95;75.53
11710;BME280;5911;51.036;6.972;2023-05-16T08:52:37;101203.22;;;14.85;74.03
11710;BME280;5911;51.036;6.972;2023-05-16T08:55:06;101194.41;;;14.84;78.93
11710;BME280;5911;51.036;6.972;2023-05-16T08:57:38;101199.44;;;14.77;77.11
11710;BME280;5911;51.036;6.972;2023-05-16T09:00:07;101194.53;;;14.83;78.62
11710;BME280;5911;51.036;6.972;2023-05-16T09:02:38;101195.81;;;14.78;79.94
11710;BME280;5911;51.036;6.972;2023-05-16T09:05:10;101191.03;;;14.72;76.95
11710;BME280;5911;51.036;6.972;2023-05-16T09:07:38;101196.91;;;14.66;73.74
11710;BME280;5911;51.036;6.972;2023-05-16T09:10:06;101189.78;;;14.76;80.34
11710;BME280;5911;51.036;6.972;2023-05-16T09:12:35;101189.22;;;14.63;76.04
11710;BME280;5911;51.036;6.972;2023-05-16T09:15:05;101173.41;;;14.71;77.03
11710;BME280;5911;51.036;6.972;2023-05-16T09:17:34;101179.31;;;14.85;78.30
11710;BME280;5911;51.036;6.972;2023-05-16T09:20:12;101199.44;;;14.77;70.63
11710;BME280;5911;51.036;6.972;2023-05-16T09:22:49;101189.94;;;14.65;70.70
11710;BME280;5911;51.036;6.972;2023-05-16T09:25:19;101193.00;;;14.70;72.16
11710;BME280;5911;51.036;6.972;2023-05-16T09:27:58;101197.59;;;14.68;74.43
11710;BME280;5911;51.036;6.972;2023-05-16T09:30:28;101199.66;;;14.55;71.76
11710;BME280;5911;51.036;6.972;2023-05-16T09:32:56;101200.38;;;14.67;75.98
11710;BME280;5911;51.036;6.972;2023-05-16T09:35:26;101195.81;;;14.78;77.82
11710;BME280;5911;51.036;6.972;2023-05-16T09:37:57;101195.81;;;14.88;78.80
11710;BME280;5911;51.036;6.972;2023-05-16T09:40:25;101204.63;;;14.89;76.96
11710;BME280;5911;51.036;6.972;2023-05-16T09:43:01;101198.19;;;15.01;70.85
11710;BME280;5911;51.036;6.972;2023-05-16T09:45:29;101197.66;;;15.07;69.93
11710;BME280;5911;51.036;6.972;2023-05-16T09:48:01;101198.75;;;15.14;65.33
11710;BME280;5911;51.036;6.972;2023-05-16T09:50:33;101186.59;;;15.21;66.65
11710;BME280;5911;51.036;6.972;2023-05-16T09:53:02;101189.09;;;15.32;68.62
11710;BME280;5911;51.036;6.972;2023-05-16T09:55:31;101189.34;;;15.48;65.60
11710;BME280;5911;51.036;6.972;2023-05-16T09:57:59;101181.50;;;15.66;66.38
11710;BME280;5911;51.036;6.972;2023-05-16T10:00:29;101190.97;;;15.78;62.61
11710;BME280;5911;51.036;6.972;2023-05-16T10:02:58;101184.56;;;15.71;63.43
11710;BME280;5911;51.036;6.972;2023-05-16T10:05:32;101187.34;;;15.79;63.30
11710;BME280;5911;51.036;6.972;2023-05-16T10:08:02;101194.56;;;15.97;64.67
11710;BME280;5911;51.036;6.972;2023-05-16T10:10:33;101203.25;;;15.99;63.42
11710;BME280;5911;51.036;6.972;2023-05-16T10:13:04;101193.72;;;15.96;59.44
11710;BME280;5911;51.036;6.972;2023-05-16T10:15:38;101184.63;;;15.89;60.96
11710;BME280;5911;51.036;6.972;2023-05-16T10:18:09;101194.00;;;15.93;60.47
11710;BME280;5911;51.036;6.972;2023-05-16T10:20:41;101191.72;;;16.08;58.83
11710;BME280;5911;51.036;6.972;2023-05-16T10:23:14;101195.34;;;16.16;59.95
11710;BME280;5911;51.036;6.972;2023-05-16T10:25:43;101198.38;;;16.22;58.44
11710;BME280;5911;51.036;6.972;2023-05-16T10:28:12;101194.00;;;16.30;58.07
11710;BME280;5911;51.036;6.972;2023-05-16T10:30:41;101185.72;;;16.33;59.19
11710;BME280;5911;51.036;6.972;2023-05-16T10:33:10;101196.38;;;16.51;58.99
11710;BME280;5911;51.036;6.972;2023-05-16T10:35:40;101188.63;;;16.67;58.12
11710;BME280;5911;51.036;6.972;2023-05-16T10:38:10;101188.88;;;16.46;59.67
11710;BME280;5911;51.036;6.972;2023-05-16T10:40:39;101191.97;;;16.69;56.16
11710;BME280;5911;51.036;6.972;2023-05-16T10:43:07;101193.84;;;17.48;56.53
11710;BME280;5911;51.036;6.972;2023-05-16T10:45:39;101194.41;;;17.59;56.20
11710;BME280;5911;51.036;6.972;2023-05-16T10:48:11;101190.91;;;17.33;55.21
11710;BME280;5911;51.036;6.972;2023-05-16T10:50:43;101178.66;;;16.87;53.47
11710;BME280;5911;51.036;6.972;2023-05-16T10:53:13;101189.47;;;16.85;53.22
11710;BME280;5911;51.036;6.972;2023-05-16T10:55:48;101186.22;;;16.92;55.01
11710;BME280;5911;51.036;6.972;2023-05-16T10:58:22;101181.00;;;16.72;54.62
11710;BME280;5911;51.036;6.972;2023-05-16T11:01:18;101193.44;;;16.54;55.19
11710;BME280;5911;51.036;6.972;2023-05-16T11:04:07;101190.59;;;16.38;56.62
11710;BME280;5911;51.036;6.972;2023-05-16T11:06:50;101187.84;;;16.30;56.42
11710;BME280;5911;51.036;6.972;2023-05-16T11:09:21;101200.66;;;16.44;57.75
11710;BME280;5911;51.036;6.972;2023-05-16T11:11:59;101196.09;;;17.17;55.08
11710;BME280;5911;51.036;6.972;2023-05-16T11:14:35;101190.06;;;17.76;55.90
11710;BME280;5911;51.036;6.972;2023-05-16T11:17:06;101203.88;;;18.32;55.24
11710;BME280;5911;51.036;6.972;2023-05-16T11:19:39;101196.69;;;18.32;54.19
11710;BME280;5911;51.036;6.972;2023-05-16T11:22:20;101198.91;;;18.11;51.45
11710;BME280;5911;51.036;6.972;2023-05-16T11:24:51;101170.41;;;17.59;51.31
11710;BME280;5911;51.036;6.972;2023-05-16T11:27:25;101198.19;;;17.67;51.43
11710;BME280;5911;51.036;6.972;2023-05-16T11:29:54;101205.03;;;17.51;53.18
11710;BME280;5911;51.036;6.972;2023-05-16T11:32:24;101202.84;;;17.29;53.55
11710;BME280;5911;51.036;6.972;2023-05-16T11:34:52;101217.81;;;17.04;56.22
11710;BME280;5911;51.036;6.972;2023-05-16T11:37:22;101194.03;;;16.75;53.55
11710;BME280;5911;51.036;6.972;2023-05-16T11:39:50;101217.47;;;16.72;55.11
11710;BME280;5911;51.036;6.972;2023-05-16T11:42:18;101214.97;;;16.70;56.32
11710;BME280;5911;51.036;6.972;2023-05-16T11:44:46;101208.97;;;16.86;55.83
11710;BME280;5911;51.036;6.972;2023-05-16T11:47:14;101211.66;;;17.47;56.90
11710;BME280;5911;51.036;6.972;2023-05-16T11:49:41;101205.91;;;17.78;58.09
11710;BME280;5911;51.036;6.972;2023-05-16T11:52:09;101212.16;;;17.86;54.96
11710;BME280;5911;51.036;6.972;2023-05-16T11:54:39;101215.00;;;17.93;54.88
11710;BME280;5911;51.036;6.972;2023-05-16T11:57:08;101208.16;;;17.90;54.23
11710;BME280;5911;51.036;6.972;2023-05-16T11:59:36;101209.13;;;18.15;54.22
11710;BME280;5911;51.036;6.972;2023-05-16T12:02:03;101204.66;;;18.66;56.40
11710;BME280;5911;51.036;6.972;2023-05-16T12:04:32;101211.28;;;19.61;54.34
11710;BME280;5911;51.036;6.972;2023-05-16T12:07:00;101213.28;;;20.22;49.67
11710;BME280;5911;51.036;6.972;2023-05-16T12:09:29;101205.72;;;20.73;50.03
11710;BME280;5911;51.036;6.972;2023-05-16T12:11:58;101215.53;;;20.50;49.96
11710;BME280;5911;51.036;6.972;2023-05-16T12:14:26;101217.34;;;20.88;48.51
11710;BME280;5911;51.036;6.972;2023-05-16T12:16:54;101214.28;;;20.29;50.76
11710;BME280;5911;51.036;6.972;2023-05-16T12:19:22;101215.19;;;20.53;48.95
11710;BME280;5911;51.036;6.972;2023-05-16T12:21:52;101209.41;;;20.95;47.97
11710;BME280;5911;51.036;6.972;2023-05-16T12:24:20;101211.44;;;20.31;48.09
11710;BME280;5911;51.036;6.972;2023-05-16T12:26:48;101209.41;;;20.72;48.57
11710;BME280;5911;51.036;6.972;2023-05-16T12:29:20;101198.28;;;20.13;48.03
11710;BME280;5911;51.036;6.972;2023-05-16T12:31:52;101212.94;;;19.38;47.89
11710;BME280;5911;51.036;6.972;2023-05-16T12:34:20;101185.31;;;18.72;49.61
11710;BME280;5911;51.036;6.972;2023-05-16T12:36:51;101201.25;;;18.56;50.43
11710;BME280;5911;51.036;6.972;2023-05-16T12:39:20;101209.47;;;18.20;52.43
11710;BME280;5911;51.036;6.972;2023-05-16T12:41:48;101202.03;;;17.98;53.38
11710;BME280;5911;51.036;6.972;2023-05-16T12:44:18;101205.16;;;17.93;53.02
11710;BME280;5911;51.036;6.972;2023-05-16T12:46:50;101201.25;;;17.80;52.17
11710;BME280;5911;51.036;6.972;2023-05-16T12:49:19;101208.66;;;17.86;52.09
11710;BME280;5911;51.036;6.972;2023-05-16T12:51:48;101207.28;;;17.82;51.87
11710;BME280;5911;51.036;6.972;2023-05-16T12:54:16;101196.78;;;17.63;51.57
11710;BME280;5911;51.036;6.972;2023-05-16T12:56:44;101223.25;;;18.08;52.86
11710;BME280;5911;51.036;6.972;2023-05-16T12:59:12;101219.13;;;18.13;53.52
11710;BME280;5911;51.036;6.972;2023-05-16T13:01:41;101225.78;;;19.10;52.13
11710;BME280;5911;51.036;6.972;2023-05-16T13:04:11;101214.69;;;20.02;50.97
11710;BME280;5911;51.036;6.972;2023-05-16T13:06:42;101205.28;;;20.92;49.60